createdAt,value
2019-05-12T00:00:58.529Z,1.50
2019-05-12T00:03:28.782Z,1.37
2019-05-12T00:05:59.103Z,1.40
2019-05-12T00:08:29.351Z,1.63
2019-05-12T00:10:59.632Z,1.57
2019-05-12T00:13:29.886Z,1.43
2019-05-12T00:16:00.267Z,1.00
2019-05-12T00:18:30.498Z,1.27
2019-05-12T00:21:00.715Z,1.57
2019-05-12T00:23:32.034Z,1.27
2019-05-12T00:26:02.293Z,1.80
2019-05-12T00:28:32.505Z,1.20
2019-05-12T00:31:02.807Z,1.47
2019-05-12T00:33:33.086Z,1.30
2019-05-12T00:36:03.304Z,1.03
2019-05-12T00:38:33.666Z,1.17
2019-05-12T00:41:03.959Z,1.33
2019-05-12T00:43:34.281Z,1.47
2019-05-12T00:46:04.734Z,1.23
2019-05-12T00:48:37.455Z,1.30
2019-05-12T00:51:07.732Z,1.50
2019-05-12T00:53:43.125Z,1.43
2019-05-12T00:56:10.073Z,1.10
2019-05-12T00:58:40.299Z,1.43
2019-05-12T01:01:10.697Z,1.60
2019-05-12T01:03:40.992Z,1.10
2019-05-12T01:06:11.256Z,1.20
2019-05-12T01:08:41.617Z,1.50
2019-05-12T01:11:11.919Z,1.20
2019-05-12T01:13:42.138Z,1.00
2019-05-12T01:16:12.294Z,0.90
2019-05-12T01:18:42.572Z,0.80
2019-05-12T01:21:12.806Z,1.20
2019-05-12T01:23:53.663Z,1.03
2019-05-12T01:26:17.893Z,1.20
2019-05-12T01:28:48.761Z,1.03
2019-05-12T01:31:20.906Z,1.30
2019-05-12T01:33:51.238Z,1.33
2019-05-12T01:36:21.565Z,1.33
2019-05-12T01:38:51.828Z,1.40
2019-05-12T01:41:22.082Z,1.03
2019-05-12T01:43:52.346Z,0.77
2019-05-12T01:46:22.595Z,0.90
2019-05-12T01:48:52.954Z,0.80
2019-05-12T01:51:23.302Z,1.03
2019-05-12T01:54:07.873Z,0.93
2019-05-12T01:56:25.467Z,0.80
2019-05-12T01:58:57.759Z,0.70
2019-05-12T02:01:28.246Z,0.90
2019-05-12T02:03:58.676Z,0.80
2019-05-12T02:06:28.963Z,0.90
2019-05-12T02:09:01.076Z,0.60
2019-05-12T02:11:34.373Z,0.80
2019-05-12T02:14:06.231Z,0.70
2019-05-12T02:16:38.582Z,0.60
2019-05-12T02:19:09.177Z,0.60
2019-05-12T02:21:39.539Z,0.50
2019-05-12T02:24:23.462Z,0.60
2019-05-12T02:26:41.755Z,0.70
2019-05-12T02:29:13.086Z,0.77
2019-05-12T02:31:43.368Z,0.80
2019-05-12T02:34:15.626Z,0.70
2019-05-12T02:36:45.564Z,0.60
2019-05-12T02:39:15.864Z,0.50
2019-05-12T02:41:46.181Z,0.53
2019-05-12T02:44:16.433Z,0.87
2019-05-12T02:46:46.726Z,0.60
2019-05-12T02:49:17.005Z,0.93
2019-05-12T02:51:47.666Z,0.83
2019-05-12T02:54:19.559Z,0.60
2019-05-12T02:56:50.834Z,0.80
2019-05-12T02:59:25.306Z,0.50
2019-05-12T03:01:56.905Z,0.50
2019-05-12T03:04:28.032Z,0.70
2019-05-12T03:07:02.339Z,0.60
2019-05-12T03:09:35.206Z,0.50
2019-05-12T03:12:05.878Z,0.50
2019-05-12T03:14:40.472Z,0.50
2019-05-12T03:17:08.286Z,0.53
2019-05-12T03:19:38.574Z,0.70
2019-05-12T03:22:08.901Z,0.77
2019-05-12T03:24:39.029Z,0.60
2019-05-12T03:27:09.319Z,0.50
2019-05-12T03:29:39.563Z,0.50
2019-05-12T03:32:10.740Z,1.00
2019-05-12T03:34:45.976Z,0.40
2019-05-12T03:37:17.693Z,0.57
2019-05-12T03:39:44.992Z,0.70
2019-05-12T03:42:15.530Z,0.60
2019-05-12T03:44:46.268Z,0.70
2019-05-12T03:47:16.683Z,0.93
2019-05-12T03:49:47.624Z,0.87
2019-05-12T03:52:18.370Z,0.60
2019-05-12T03:54:49.535Z,0.60
2019-05-12T03:57:19.675Z,0.70
2019-05-12T03:59:50.002Z,0.40
2019-05-12T04:02:20.452Z,0.87
2019-05-12T04:04:51.281Z,0.70
2019-05-12T04:07:24.710Z,0.90
2019-05-12T04:09:55.023Z,1.00
2019-05-12T04:12:28.135Z,1.23
2019-05-12T04:14:58.652Z,0.87
2019-05-12T04:17:29.155Z,1.10
2019-05-12T04:19:59.640Z,1.00
2019-05-12T04:22:35.670Z,0.87
2019-05-12T04:25:06.968Z,1.10
2019-05-12T04:27:39.038Z,1.40
2019-05-12T04:30:14.569Z,0.97
2019-05-12T04:32:47.280Z,0.73
2019-05-12T04:35:20.445Z,0.90
2019-05-12T04:37:51.048Z,1.00
2019-05-12T04:40:21.225Z,0.90
2019-05-12T04:42:54.886Z,1.10
2019-05-12T04:45:29.575Z,0.90
2019-05-12T04:48:00.771Z,0.63
2019-05-12T04:50:35.443Z,0.80
2019-05-12T04:53:05.951Z,0.80
2019-05-12T04:55:36.788Z,0.70
2019-05-12T04:58:11.289Z,0.57
2019-05-12T05:00:44.623Z,0.30
2019-05-12T05:03:14.717Z,0.60
2019-05-12T05:05:45.126Z,0.57
2019-05-12T05:08:19.630Z,0.30
2019-05-12T05:10:47.799Z,0.47
2019-05-12T05:13:18.086Z,0.40
2019-05-12T05:15:48.326Z,0.70
2019-05-12T05:18:18.591Z,0.47
2019-05-12T05:20:48.915Z,0.70
2019-05-12T05:23:19.184Z,0.60
2019-05-12T05:25:49.476Z,0.30
2019-05-12T05:28:19.758Z,0.50
2019-05-12T05:30:50.162Z,0.70
2019-05-12T05:33:20.637Z,0.30
2019-05-12T05:35:51.495Z,0.60
2019-05-12T05:38:23.695Z,0.50
2019-05-12T05:40:54.265Z,0.50
2019-05-12T05:43:24.532Z,0.50
2019-05-12T05:46:02.649Z,0.40
2019-05-12T05:48:27.319Z,0.80
2019-05-12T05:50:59.971Z,1.13
2019-05-12T05:53:29.605Z,0.90
2019-05-12T05:56:00.301Z,0.87
2019-05-12T05:58:33.882Z,0.80
2019-05-12T06:01:08.032Z,0.80
2019-05-12T06:03:35.694Z,0.80
2019-05-12T06:06:10.784Z,1.00
2019-05-12T06:08:38.008Z,0.70
2019-05-12T06:11:08.710Z,0.60
2019-05-12T06:13:40.279Z,0.33
2019-05-12T06:16:11.647Z,0.40
2019-05-12T06:18:44.002Z,0.30
2019-05-12T06:21:14.610Z,0.37
2019-05-12T06:23:44.994Z,0.30
2019-05-12T06:26:15.197Z,0.40
2019-05-12T06:28:45.471Z,0.50
2019-05-12T06:31:18.893Z,0.60
2019-05-12T06:33:47.630Z,0.70
2019-05-12T06:36:21.981Z,0.37
2019-05-12T06:38:53.968Z,0.90
2019-05-12T06:41:25.905Z,0.50
2019-05-12T06:43:55.907Z,0.40
2019-05-12T06:46:26.154Z,0.50
2019-05-12T06:49:00.827Z,0.47
2019-05-12T06:51:28.389Z,5.87
2019-05-12T06:54:00.833Z,2.53
2019-05-12T06:56:30.682Z,5.57
2019-05-12T06:59:05.643Z,1.60
2019-05-12T07:01:33.443Z,2.37
2019-05-12T07:04:10.022Z,0.80
2019-05-12T07:06:38.521Z,1.40
2019-05-12T07:09:09.996Z,1.57
2019-05-12T07:11:47.576Z,2.50
2019-05-12T07:14:18.822Z,1.23
2019-05-12T07:16:46.390Z,1.47
2019-05-12T07:19:22.866Z,1.30
2019-05-12T07:21:50.772Z,1.00
2019-05-12T07:24:34.179Z,0.40
2019-05-12T07:27:09.195Z,0.40
2019-05-12T07:29:37.266Z,0.40
2019-05-12T07:32:16.567Z,0.40
2019-05-12T07:34:39.792Z,0.30
2019-05-12T07:37:10.785Z,0.40
2019-05-12T07:39:45.374Z,0.40
2019-05-12T07:42:16.121Z,0.60
2019-05-12T07:44:46.732Z,0.30
2019-05-12T07:47:19.182Z,0.40
2019-05-12T07:49:49.001Z,0.53
2019-05-12T07:52:19.264Z,0.30
2019-05-12T07:54:52.749Z,0.40
2019-05-12T07:57:21.568Z,0.50
2019-05-12T07:59:54.034Z,0.60
2019-05-12T08:02:31.666Z,0.60
2019-05-12T08:04:55.722Z,0.50
2019-05-12T08:07:29.865Z,0.30
2019-05-12T08:09:57.946Z,0.40
2019-05-12T08:12:28.240Z,0.43
2019-05-12T08:14:59.439Z,0.50
2019-05-12T08:17:30.430Z,0.30
2019-05-12T08:20:00.690Z,0.30
2019-05-12T08:22:30.993Z,0.40
2019-05-12T08:25:01.289Z,0.30
2019-05-12T08:27:33.909Z,0.30
2019-05-12T08:30:06.191Z,0.30
2019-05-12T08:32:35.410Z,0.20
2019-05-12T08:35:05.829Z,0.30
2019-05-12T08:37:36.192Z,0.30
2019-05-12T08:40:07.656Z,0.20
2019-05-12T08:42:39.194Z,0.23
2019-05-12T08:45:17.021Z,0.23
2019-05-12T08:47:43.873Z,0.30
2019-05-12T08:50:13.812Z,0.20
2019-05-12T08:52:48.222Z,0.30
2019-05-12T08:55:25.062Z,0.30
2019-05-12T08:57:50.578Z,0.30
2019-05-12T09:00:34.299Z,0.37
2019-05-12T09:03:05.007Z,0.33
2019-05-12T09:05:38.608Z,0.20
2019-05-12T09:08:07.909Z,0.23
2019-05-12T09:10:38.180Z,0.50
2019-05-12T09:13:08.422Z,0.40
2019-05-12T09:15:38.803Z,0.40
2019-05-12T09:18:09.159Z,0.40
2019-05-12T09:20:46.159Z,0.20
2019-05-12T09:23:13.453Z,0.27
2019-05-12T09:25:45.286Z,0.30
2019-05-12T09:28:15.214Z,0.40
2019-05-12T09:30:49.355Z,0.77
2019-05-12T09:33:21.363Z,15.97
2019-05-12T09:35:53.891Z,2.57
2019-05-12T09:38:26.525Z,1.33
2019-05-12T09:41:00.907Z,6.73
2019-05-12T09:43:29.767Z,6.33
2019-05-12T09:45:59.914Z,4.93
2019-05-12T09:48:30.197Z,3.00
2019-05-12T09:51:02.049Z,2.23
2019-05-12T09:53:34.107Z,0.97
2019-05-12T09:56:04.661Z,0.70
2019-05-12T09:58:34.898Z,1.17
2019-05-12T10:01:05.510Z,2.70
2019-05-12T10:03:38.928Z,1.10
2019-05-12T10:06:11.438Z,1.27
2019-05-12T10:08:39.659Z,0.70
2019-05-12T10:11:10.430Z,1.30
2019-05-12T10:13:42.058Z,0.93
2019-05-12T10:16:13.425Z,0.73
2019-05-12T10:18:51.166Z,15.70
2019-05-12T10:21:17.522Z,0.60
2019-05-12T10:23:51.512Z,8.37
2019-05-12T10:26:19.598Z,9.30
2019-05-12T10:28:58.175Z,10.53
2019-05-12T10:31:29.679Z,2.70
2019-05-12T10:34:19.018Z,1.73
2019-05-12T10:36:49.622Z,1.87
2019-05-12T10:39:20.250Z,2.10
2019-05-12T10:41:50.843Z,0.50
2019-05-12T10:44:22.093Z,0.27
2019-05-12T10:46:55.006Z,0.33
2019-05-12T10:49:25.386Z,0.53
2019-05-12T10:51:55.505Z,0.23
2019-05-12T10:54:25.817Z,0.47
2019-05-12T10:56:56.290Z,0.40
2019-05-12T10:59:32.827Z,0.30
2019-05-12T11:02:03.356Z,0.40
2019-05-12T11:04:57.152Z,0.80
2019-05-12T11:07:28.572Z,0.50
2019-05-12T11:10:05.572Z,0.40
2019-05-12T11:12:33.413Z,0.40
2019-05-12T11:15:06.671Z,0.43
2019-05-12T11:18:05.067Z,0.43
2019-05-12T11:20:35.306Z,0.40
2019-05-12T11:23:05.683Z,0.30
2019-05-12T11:25:38.682Z,0.30
2019-05-12T11:28:09.080Z,0.40
2019-05-12T11:30:39.207Z,0.30
2019-05-12T11:33:09.498Z,0.30
2019-05-12T11:35:39.692Z,0.20
2019-05-12T11:38:09.953Z,0.30
2019-05-12T11:40:40.354Z,2.20
2019-05-12T11:43:10.619Z,2.00
2019-05-12T11:45:44.014Z,0.97
2019-05-12T11:48:14.404Z,0.67
2019-05-12T11:50:47.771Z,0.30
2019-05-12T11:53:16.867Z,0.40
2019-05-12T11:55:47.125Z,0.50
2019-05-12T11:58:17.370Z,0.57
2019-05-12T12:00:50.023Z,1.37
2019-05-12T12:03:20.286Z,2.00
2019-05-12T12:05:50.793Z,4.97
2019-05-12T12:08:26.376Z,1.63
2019-05-12T12:10:54.308Z,0.90
2019-05-12T12:13:28.379Z,0.93
2019-05-12T12:16:00.380Z,1.03
2019-05-12T12:18:28.484Z,0.80
2019-05-12T12:21:05.166Z,0.70
2019-05-12T12:23:30.711Z,0.40
2019-05-12T12:26:00.947Z,0.50
2019-05-12T12:28:31.260Z,0.40
2019-05-12T12:31:05.081Z,1.70
2019-05-12T12:33:38.724Z,0.80
2019-05-12T12:36:05.670Z,1.57
2019-05-12T12:38:35.946Z,1.60
2019-05-12T12:41:06.182Z,0.90
2019-05-12T12:43:36.454Z,1.10
2019-05-12T12:46:21.455Z,1.10
2019-05-12T12:48:49.682Z,1.47
2019-05-12T12:51:20.188Z,1.20
2019-05-12T12:53:50.517Z,2.60
2019-05-12T12:56:27.765Z,0.93
2019-05-12T12:58:55.264Z,0.40
2019-05-12T13:01:28.691Z,0.60
2019-05-12T13:03:59.490Z,0.60
2019-05-12T13:06:29.285Z,0.60
2019-05-12T13:08:59.520Z,0.30
2019-05-12T13:11:33.525Z,0.50
2019-05-12T13:14:03.974Z,0.60
2019-05-12T13:16:34.314Z,0.40
2019-05-12T13:19:12.480Z,0.43
2019-05-12T13:21:36.797Z,0.40
2019-05-12T13:24:07.062Z,0.30
2019-05-12T13:26:37.340Z,0.50
2019-05-12T13:29:09.512Z,0.40
2019-05-12T13:31:48.307Z,0.80
2019-05-12T13:34:17.912Z,0.93
2019-05-12T13:36:48.057Z,0.80
2019-05-12T13:39:20.339Z,0.40
2019-05-12T13:41:55.461Z,0.50
2019-05-12T13:44:24.971Z,0.30
2019-05-12T13:46:58.845Z,0.67
2019-05-12T13:49:30.050Z,0.60
2019-05-12T13:52:00.387Z,0.43
2019-05-12T13:54:30.638Z,0.60
2019-05-12T13:57:03.771Z,0.67
2019-05-12T13:59:34.067Z,4.80
2019-05-12T14:02:04.541Z,2.40
2019-05-12T14:04:34.798Z,2.80
2019-05-12T14:07:09.203Z,2.27
2019-05-12T14:09:37.128Z,0.60
2019-05-12T14:12:07.742Z,1.00
2019-05-12T14:14:38.002Z,0.70
2019-05-12T14:17:08.306Z,0.57
2019-05-12T14:19:38.582Z,0.50
2019-05-12T14:22:15.186Z,0.60
2019-05-12T14:24:42.240Z,0.40
2019-05-12T14:27:12.959Z,0.40
2019-05-12T14:29:44.089Z,0.60
2019-05-12T14:32:17.321Z,0.63
2019-05-12T14:34:46.228Z,1.00
2019-05-12T14:37:17.648Z,2.60
2019-05-12T14:39:50.284Z,1.53
2019-05-12T14:42:19.870Z,2.33
2019-05-12T14:44:50.037Z,0.70
2019-05-12T14:47:27.886Z,0.80
2019-05-12T14:49:54.266Z,0.90
2019-05-12T14:52:35.566Z,0.60
2019-05-12T14:55:10.031Z,0.80
2019-05-12T14:57:40.382Z,1.30
2019-05-12T15:00:17.373Z,1.80
2019-05-12T15:02:43.946Z,1.20
2019-05-12T15:05:14.417Z,2.23
2019-05-12T15:07:51.001Z,2.37
2019-05-12T15:10:16.730Z,1.40
2019-05-12T15:12:50.979Z,3.40
2019-05-12T15:15:26.760Z,6.63
2019-05-12T15:18:03.454Z,4.17
2019-05-12T15:20:29.384Z,2.60
2019-05-12T15:22:59.817Z,1.10
2019-05-12T15:28:03.920Z,0.90
2019-05-12T15:30:34.106Z,2.77
2019-05-12T15:33:14.735Z,0.90
2019-05-12T15:35:50.703Z,1.23
2019-05-12T15:38:23.927Z,2.57
2019-05-12T15:40:57.309Z,2.43
2019-05-12T15:43:43.335Z,0.70
2019-05-12T15:46:13.433Z,1.00
2019-05-12T15:48:44.747Z,0.80
2019-05-12T15:51:15.043Z,0.80
2019-05-12T15:53:45.302Z,0.40
2019-05-12T15:56:23.099Z,0.67
2019-05-12T15:58:55.872Z,2.73
2019-05-12T16:01:25.350Z,0.90
2019-05-12T16:03:55.494Z,0.60
2019-05-12T16:06:25.803Z,0.50
2019-05-12T16:08:57.859Z,0.70
2019-05-12T16:11:28.305Z,0.90
2019-05-12T16:14:00.064Z,0.57
2019-05-12T16:16:34.027Z,1.30
2019-05-12T16:19:04.512Z,0.67
2019-05-12T16:21:36.743Z,0.63
2019-05-12T16:24:11.092Z,0.70
2019-05-12T16:26:45.369Z,0.80
2019-05-12T16:29:23.119Z,0.80
2019-05-12T16:31:53.661Z,1.37
2019-05-12T16:34:23.926Z,3.03
2019-05-12T16:36:54.791Z,2.07
2019-05-12T16:39:30.512Z,1.00
2019-05-12T16:42:00.101Z,1.30
2019-05-12T16:44:29.439Z,1.20
2019-05-12T16:47:04.306Z,1.47
2019-05-12T16:49:37.354Z,1.10
2019-05-12T16:52:07.700Z,1.07
2019-05-12T16:54:38.610Z,2.30
2019-05-12T16:57:12.975Z,1.37
2019-05-12T16:59:40.961Z,2.73
2019-05-12T17:02:11.158Z,8.07
2019-05-12T17:04:41.530Z,4.03
2019-05-12T17:07:17.338Z,1.70
2019-05-12T17:09:43.950Z,11.83
2019-05-12T17:12:14.804Z,3.77
2019-05-12T17:14:49.872Z,4.40
2019-05-12T17:17:21.029Z,5.23
2019-05-12T17:19:49.363Z,4.33
2019-05-12T17:22:19.605Z,3.00
2019-05-12T17:24:49.961Z,2.67
2019-05-12T17:27:24.285Z,2.00
2019-05-12T17:29:54.037Z,1.23
2019-05-12T17:32:24.136Z,1.10
2019-05-12T17:34:54.383Z,3.20
2019-05-12T17:37:24.691Z,3.40
2019-05-12T17:39:54.973Z,9.63
2019-05-12T17:42:26.993Z,4.10
2019-05-12T17:45:00.055Z,4.73
2019-05-12T17:47:32.085Z,1.60
2019-05-12T17:50:10.093Z,2.43
2019-05-12T17:52:38.416Z,2.13
2019-05-12T17:55:14.517Z,5.10
2019-05-12T17:57:50.413Z,8.13
2019-05-12T18:00:23.579Z,13.00
2019-05-12T18:03:14.429Z,11.73
2019-05-12T18:05:33.934Z,20.67
2019-05-12T18:08:06.771Z,28.03
2019-05-12T18:10:43.674Z,7.13
2019-05-12T18:13:23.120Z,3.50
2019-05-12T18:15:53.126Z,4.33
2019-05-12T18:18:32.773Z,2.73
2019-05-12T18:21:03.698Z,1.30
2019-05-12T18:23:34.612Z,1.40
2019-05-12T18:26:16.162Z,1.10
2019-05-12T18:28:48.524Z,1.57
2019-05-12T18:31:22.363Z,1.53
2019-05-12T18:33:57.068Z,1.07
2019-05-12T18:36:29.328Z,1.20
2019-05-12T18:39:05.872Z,1.80
2019-05-12T18:41:34.175Z,1.40
2019-05-12T18:44:05.195Z,1.30
2019-05-12T18:46:44.991Z,1.40
2019-05-12T18:49:13.455Z,1.20
2019-05-12T18:51:49.075Z,1.10
2019-05-12T18:54:20.296Z,1.10
2019-05-12T18:56:52.426Z,1.20
2019-05-12T18:59:28.227Z,1.70
2019-05-12T19:01:59.625Z,2.60
2019-05-12T19:04:34.071Z,2.40
2019-05-12T19:07:03.808Z,2.60
2019-05-12T19:09:34.359Z,1.80
2019-05-12T19:12:15.674Z,1.47
2019-05-12T19:14:40.392Z,0.83
2019-05-12T19:17:09.210Z,0.80
2019-05-12T19:19:39.487Z,1.03
2019-05-12T19:22:09.973Z,0.87
2019-05-12T19:24:40.514Z,0.90
2019-05-12T19:27:16.545Z,1.03
2019-05-12T19:29:48.722Z,1.13
2019-05-12T19:32:14.729Z,1.43
2019-05-12T19:34:46.322Z,1.10
2019-05-12T19:37:19.570Z,4.73
2019-05-12T19:39:48.922Z,1.83
2019-05-12T19:42:20.458Z,1.00
2019-05-12T19:44:50.919Z,1.10
2019-05-12T19:47:31.380Z,1.23
2019-05-12T19:49:53.659Z,1.77
2019-05-12T19:52:25.050Z,2.30
2019-05-12T19:54:55.226Z,3.23
2019-05-12T19:57:26.329Z,5.17
2019-05-12T19:59:56.602Z,2.30
2019-05-12T20:02:26.842Z,2.10
2019-05-12T20:04:57.102Z,1.10
2019-05-12T20:07:27.339Z,0.70
2019-05-12T20:10:00.459Z,0.87
2019-05-12T20:12:29.569Z,0.87
2019-05-12T20:14:59.901Z,1.20
2019-05-12T20:17:30.251Z,1.23
2019-05-12T20:20:00.628Z,1.17
2019-05-12T20:22:33.289Z,0.87
2019-05-12T20:25:04.301Z,0.80
2019-05-12T20:27:34.878Z,0.50
2019-05-12T20:30:15.598Z,0.60
2019-05-12T20:32:37.626Z,0.60
2019-05-12T20:35:08.019Z,0.63
2019-05-12T20:37:43.196Z,0.60
2019-05-12T20:40:10.458Z,0.73
2019-05-12T20:42:55.614Z,0.50
2019-05-12T20:45:13.734Z,0.43
2019-05-12T20:47:45.083Z,0.50
2019-05-12T20:50:16.115Z,0.87
2019-05-12T20:52:52.216Z,0.90
2019-05-12T20:55:19.486Z,0.80
2019-05-12T20:57:53.934Z,0.60
2019-05-12T21:00:24.260Z,0.90
2019-05-12T21:02:54.018Z,0.97
2019-05-12T21:05:24.409Z,1.27
2019-05-12T21:07:55.897Z,1.00
2019-05-12T21:10:29.814Z,0.80
2019-05-12T21:12:58.752Z,0.70
2019-05-12T21:15:40.632Z,1.10
2019-05-12T21:18:04.474Z,0.73
2019-05-12T21:20:33.668Z,0.70
2019-05-12T21:23:04.127Z,0.97
2019-05-12T21:25:34.373Z,0.90
2019-05-12T21:28:07.750Z,0.50
2019-05-12T21:30:36.566Z,0.80
2019-05-12T21:33:06.769Z,0.80
2019-05-12T21:35:40.875Z,0.70
2019-05-12T21:38:08.879Z,0.87
2019-05-12T21:40:39.146Z,0.60
2019-05-12T21:43:09.664Z,0.80
2019-05-12T21:45:39.921Z,1.50
2019-05-12T21:48:15.117Z,1.73
2019-05-12T21:50:44.126Z,1.13
2019-05-12T21:53:17.596Z,1.40
2019-05-12T21:55:45.961Z,1.10
2019-05-12T21:58:17.217Z,0.87
2019-05-12T22:00:55.867Z,0.93
2019-05-12T22:03:24.302Z,0.80
2019-05-12T22:05:55.691Z,0.80
2019-05-12T22:08:27.808Z,0.80
2019-05-12T22:11:00.700Z,1.10
2019-05-12T22:13:30.005Z,1.10
2019-05-12T22:16:00.378Z,1.10
2019-05-12T22:18:30.623Z,1.10
2019-05-12T22:21:01.798Z,1.30
2019-05-12T22:23:33.780Z,0.90
2019-05-12T22:26:04.445Z,1.00
2019-05-12T22:28:35.102Z,1.23
2019-05-12T22:31:05.580Z,1.17
2019-05-12T22:33:40.918Z,1.10
2019-05-12T22:36:14.656Z,1.00
2019-05-12T22:38:39.610Z,1.07
2019-05-12T22:41:09.913Z,1.07
2019-05-12T22:43:42.791Z,1.13
2019-05-12T22:46:13.618Z,1.10
2019-05-12T22:48:45.280Z,1.13
2019-05-12T22:51:23.371Z,1.10
2019-05-12T22:53:47.610Z,1.10
2019-05-12T22:56:18.305Z,1.40
2019-05-12T22:58:51.886Z,1.27
2019-05-12T23:01:23.534Z,0.97
2019-05-12T23:03:55.927Z,1.00
2019-05-12T23:06:27.528Z,1.00
2019-05-12T23:08:57.282Z,1.30
2019-05-12T23:11:31.953Z,1.00
2019-05-12T23:13:59.758Z,1.20
2019-05-12T23:16:30.178Z,1.30
2019-05-12T23:19:01.308Z,1.03
2019-05-12T23:21:32.333Z,1.17
2019-05-12T23:24:03.808Z,1.27
2019-05-12T23:26:41.747Z,1.20
2019-05-12T23:29:06.467Z,1.77
2019-05-12T23:31:36.745Z,1.20
2019-05-12T23:34:12.194Z,1.10
2019-05-12T23:36:39.294Z,0.90
2019-05-12T23:39:09.682Z,1.17
2019-05-12T23:41:39.982Z,1.33
2019-05-12T23:44:10.243Z,1.30
2019-05-12T23:46:40.427Z,1.40
2019-05-12T23:49:10.651Z,1.40
2019-05-12T23:51:40.948Z,1.07
2019-05-12T23:54:11.238Z,1.60
2019-05-12T23:56:41.497Z,1.30
2019-05-12T23:59:13.511Z,0.97
